Hovedside
METAR-TAF:

METAR-TAF

Lufthavner :

Ivalo lufthavn

Ivalo, Finland

breddegrad: 68-37N, lengdegrad: 027-25E, høyde over havet: 147 m

Gjeldene værobservasjon

Denne rapporten ble laget for 28 minutter siden, klokken 21:50 UTC
Vind 5 kt fra Nord-nordvest, skiftende mellom Nordvest og Nordøst
Temperatur -1°C
Luftfuktighet 93%
Trykk 993 hPa
Sikt: 3900 m
Brutte skyer i en høyde av 1700 ft
Overskyet i en høyde av 3300 ft
lett snø

METAR: EFIV 242150Z AUTO 34005KT 310V040 3900 -SN BKN017 OVC033 M01/M02 Q0993

Tid: 00:18 (22:18 UTC)

Varsel

Denne rapporten ble laget for 7 timer og 43 minutter siden, klokken 14:35 UTC
Varsel gyldig fra 24. klokken 15 UTC til 24. klokken 18 UTC
Vind 6 kt fra Nord-nordvest
Sikt 10 km eller mer
Brutte skyer i en høyde av 3000 ft

TAF: EFIV 241435Z 2415/2418 33006KT 9999 BKN030

Værobservasjoner og værvarsel for over 4000 flyplasser (METAR- og TAF-rapporter).

Tilgjengelige stasjoner er representert av de røde og gule prikkene på kartet.

Hold musepekeren over prikken for å se navnet på stasjonen.

Klikk så for å se værobservasjoner og -varsler.

For å forandre kartet kan du klikke på den grønne knappen med svart kryss for å zoome inn, på den grønne knappen med strek for å zoome ut, eller på de grønne pilene for å se tilstøtende kart.


METAR-TAF: